»·PEaware :: N1718G KSAN-KOXR

N1718G :: KSAN-KOXR

FLIGHT INFORMATION

Flight Status: Arrived
Operator: Privately registered:
United States
More flights under this callsign
Pilot: Spencer M. (27733)
Aircraft: CESSNA 206 STATIONAIR
(C206)
More flights by this aircraft type
Origin: KSAN San Diego Intl-Lindbergh
United States
Destination: KOXR Oxnard
United States
More flights between these airports :: More routes between these airports
Route: KSAN-LAX-IPIHO-KOXR
File this flight plan on PilotEdge
Remarks:
Altitude:
(Current/Filed)
6,500ft
Speed:
(Current/Filed)
160kts
Departed: 25-Feb-20 09:05 PM
Arrived: 25-Feb-20 10:09 PM
Distance/Time
Traveled:
134nm/1:04
Distance/Time
To Go:
Arrived

Flight Plot

Page will automatically refresh every two minutes.


Map Options




Map Legend


Flown Route
Filed Route
Departure Airport
Arrival Airport
Navaid (VOR, NDB)
Fix

Horizontal Profiles

Position Reports

Time Latitude Longitude Heading Altitude Ground
Speed
25-Feb-20 20:22 32.734272 -117.185249 196 17ft 0kts
25-Feb-20 20:23 32.734272 -117.185249 196 17ft 0kts
25-Feb-20 20:24 32.734272 -117.185249 196 17ft 0kts
25-Feb-20 20:25 32.734272 -117.185249 196 17ft 0kts
25-Feb-20 20:26 32.734272 -117.185249 196 17ft 0kts
25-Feb-20 20:27 32.734272 -117.185249 196 17ft 0kts
25-Feb-20 20:28 32.734272 -117.185249 196 17ft 0kts
25-Feb-20 20:29 32.734272 -117.185249 196 17ft 0kts
25-Feb-20 20:30 32.734272 -117.185249 196 17ft 0kts
25-Feb-20 20:31 32.734272 -117.185249 196 17ft 0kts
25-Feb-20 20:32 32.734272 -117.185249 196 17ft 0kts
25-Feb-20 20:32 32.734272 -117.185249 196 17ft 0kts
25-Feb-20 20:34 32.734272 -117.185249 196 17ft 0kts
25-Feb-20 20:35 32.734272 -117.185249 196 17ft 0kts
25-Feb-20 20:35 32.734272 -117.185249 196 17ft 0kts
25-Feb-20 20:36 32.734272 -117.185249 196 17ft 0kts
25-Feb-20 20:38 32.734272 -117.185249 196 17ft 0kts
25-Feb-20 20:38 32.734272 -117.185249 196 17ft 0kts
25-Feb-20 20:40 32.734272 -117.185249 196 17ft 0kts
25-Feb-20 20:40 32.734272 -117.185249 196 17ft 0kts
25-Feb-20 20:41 32.734272 -117.185249 196 17ft 0kts
25-Feb-20 20:42 32.734272 -117.185249 196 17ft 0kts
25-Feb-20 20:43 32.734272 -117.185249 196 17ft 0kts
25-Feb-20 20:44 32.734272 -117.185249 196 17ft 0kts
25-Feb-20 20:45 32.734272 -117.185249 196 17ft 0kts
25-Feb-20 20:46 32.734272 -117.185249 196 17ft 0kts
25-Feb-20 20:47 32.734272 -117.185249 196 17ft 0kts
25-Feb-20 20:48 32.734272 -117.185249 196 17ft 0kts
25-Feb-20 20:49 32.734272 -117.185249 196 17ft 0kts
25-Feb-20 20:50 32.734272 -117.185249 196 17ft 0kts
25-Feb-20 20:51 32.734272 -117.185249 196 17ft 0kts
25-Feb-20 20:52 32.734272 -117.185249 196 17ft 0kts
25-Feb-20 20:53 32.734272 -117.185249 196 17ft 0kts
25-Feb-20 20:54 32.734272 -117.185249 196 17ft 0kts
25-Feb-20 20:55 32.733811 -117.185086 144 17ft 4kts
25-Feb-20 20:56 32.732989 -117.182517 106 16ft 14kts
25-Feb-20 20:57 32.731960 -117.178290 105 20ft 11kts
25-Feb-20 20:58 32.731048 -117.175296 147 22ft 3kts
25-Feb-20 20:59 32.731016 -117.175286 173 22ft 0kts
25-Feb-20 21:00 32.731016 -117.175286 173 22ft 0kts
25-Feb-20 21:01 32.731016 -117.175286 173 22ft 0kts
25-Feb-20 21:02 32.731002 -117.175284 172 22ft 0kts
25-Feb-20 21:03 32.730159 -117.175542 266 20ft 9kts
25-Feb-20 21:04 32.735389 -117.203049 277 629ft 117kts
25-Feb-20 21:05 32.750552 -117.237875 329 1760ft 127kts
25-Feb-20 21:06 32.780505 -117.258412 330 1963ft 122kts
25-Feb-20 21:07 32.810074 -117.278124 331 1957ft 120kts
25-Feb-20 21:08 32.838285 -117.296581 331 2216ft 97kts
25-Feb-20 21:09 32.857444 -117.310296 331 2518ft 96kts
25-Feb-20 21:10 32.885687 -117.336341 325 2827ft 158kts
25-Feb-20 21:11 32.919609 -117.370130 318 3224ft 154kts
25-Feb-20 21:12 32.950521 -117.402884 318 3621ft 137kts
25-Feb-20 21:13 32.976386 -117.430371 318 4500ft 116kts
25-Feb-20 21:14 32.999863 -117.453958 320 5390ft 108kts
25-Feb-20 21:15 33.023203 -117.477154 320 6294ft 110kts
25-Feb-20 21:16 33.051083 -117.503313 323 6503ft 146kts
25-Feb-20 21:17 33.085244 -117.533618 323 6500ft 156kts
25-Feb-20 21:18 33.120548 -117.564910 323 6499ft 158kts
25-Feb-20 21:19 33.155828 -117.596179 323 6499ft 158kts
25-Feb-20 21:20 33.189946 -117.629609 321 6499ft 158kts
25-Feb-20 21:21 33.223921 -117.663151 320 6499ft 158kts
25-Feb-20 21:22 33.257476 -117.697413 319 6499ft 158kts
25-Feb-20 21:23 33.291511 -117.732198 319 6338ft 164kts
25-Feb-20 21:24 33.324870 -117.766542 317 6462ft 155kts
25-Feb-20 21:25 33.356339 -117.802384 315 6509ft 157kts
25-Feb-20 21:26 33.387651 -117.839207 315 6509ft 158kts
25-Feb-20 21:27 33.419090 -117.876172 315 6509ft 158kts
25-Feb-20 21:28 33.450573 -117.913184 315 6509ft 158kts
25-Feb-20 21:29 33.482058 -117.950193 315 6509ft 158kts
25-Feb-20 21:30 33.513778 -117.986957 317 6509ft 158kts
25-Feb-20 21:31 33.547351 -118.021439 319 6508ft 158kts
25-Feb-20 21:32 33.580832 -118.055616 319 6509ft 158kts
25-Feb-20 21:33 33.614435 -118.089927 319 6509ft 158kts
25-Feb-20 21:34 33.648017 -118.124212 319 6509ft 158kts
25-Feb-20 21:35 33.681675 -118.158573 319 6509ft 158kts
25-Feb-20 21:36 33.715430 -118.193027 319 6509ft 159kts
25-Feb-20 21:37 33.748700 -118.228144 317 6508ft 159kts
25-Feb-20 21:38 33.781066 -118.264801 317 6509ft 159kts
25-Feb-20 21:39 33.813375 -118.301429 317 6509ft 159kts
25-Feb-20 21:40 33.845762 -118.338140 317 6509ft 159kts
25-Feb-20 21:41 33.879075 -118.373449 320 6509ft 159kts
25-Feb-20 21:42 33.912807 -118.408507 319 6509ft 159kts
25-Feb-20 21:43 33.948439 -118.439956 333 6509ft 159kts
25-Feb-20 21:44 33.989674 -118.459440 336 6508ft 159kts
25-Feb-20 21:45 34.030219 -118.481269 337 6509ft 159kts
25-Feb-20 21:46 34.071802 -118.500252 338 6508ft 159kts
25-Feb-20 21:47 34.113077 -118.520558 338 6509ft 159kts
25-Feb-20 21:48 34.155090 -118.541219 338 6118ft 164kts
25-Feb-20 21:49 34.181816 -118.573031 276 5550ft 98kts
25-Feb-20 21:50 34.183406 -118.611312 273 5092ft 144kts
25-Feb-20 21:51 34.186424 -118.664732 274 4721ft 165kts
25-Feb-20 21:52 34.190341 -118.719760 275 4505ft 164kts
25-Feb-20 21:53 34.192403 -118.769351 275 4095ft 118kts
25-Feb-20 21:54 34.195412 -118.805206 276 3413ft 101kts
25-Feb-20 21:55 34.198128 -118.833910 277 3157ft 77kts
25-Feb-20 21:56 34.199349 -118.860476 268 3339ft 82kts
25-Feb-20 21:57 34.197263 -118.889656 261 3147ft 96kts
25-Feb-20 21:58 34.195292 -118.922253 264 2903ft 99kts
25-Feb-20 21:59 34.194076 -118.955217 271 2441ft 99kts
25-Feb-20 22:00 34.196147 -118.987577 275 2192ft 95kts
25-Feb-20 22:01 34.197566 -119.019898 271 2072ft 96kts
25-Feb-20 22:02 34.197786 -119.052417 271 1823ft 97kts
25-Feb-20 22:03 34.199391 -119.081720 275 1464ft 84kts
25-Feb-20 22:04 34.200003 -119.109941 270 1081ft 83kts
25-Feb-20 22:05 34.200371 -119.138267 270 756ft 84kts
25-Feb-20 22:06 34.200574 -119.164107 269 572ft 72kts
25-Feb-20 22:07 34.200571 -119.186206 271 279ft 65kts
25-Feb-20 22:08 34.200788 -119.204445 270 40ft 27kts
25-Feb-20 22:09 34.200021 -119.206978 131 37ft 2kts
25-Feb-20 22:10 34.199359 -119.201826 94 40ft 11kts

Navigation Log

Ident Type
Flight plan parsing failed, navigation log unavailable